.
WxDataArchive / Data Records for 2014-01-21
2014-01-20 January 2014 2014-01-22

Data Records for Tuesday, 21 January 2014

Time	Temp	Chill	HIndex	Humid	Dewpt	 Wind 	HiWind	WindDir	Rain 	Barom 
-----	----	-----	------	-----	-----	------	------	-------	-----	----- 
00:00	22.2	22.2	22.2	83	17.8	1	3	90	0.00	29.953 
00:05	22.1	22.1	22.1	83	17.7	2	6	90	0.00	29.953 
00:10	21.9	21.9	21.9	83	17.5	1	6	90	0.00	29.953 
00:15	21.9	21.9	21.9	83	17.5	2	6	68	0.00	29.946 
00:20	21.8	21.8	21.8	83	17.4	1	6	90	0.00	29.946 
00:25	21.8	21.8	21.8	84	17.7	1	4	45	0.00	29.946 
00:30	21.6	21.6	21.6	83	17.3	3	12	90	0.00	29.954 
00:35	20.5	20.5	20.5	81	15.6	3	6	112	0.00	29.954 
00:40	19.4	19.4	19.4	80	14.3	3	7	90	0.00	29.954 
00:45	18.6	12.6	18.6	80	13.5	4	12	112	0.00	29.964 
00:50	18.1	18.1	18.1	80	13.0	2	7	90	0.00	29.964 
00:55	17.5	10.0	17.5	80	12.4	5	13	112	0.00	29.964 
01:00	17.2	9.7	17.2	80	12.1	5	14	112	0.00	29.969 
01:05	17.0	17.0	17.0	80	11.9	2	14	90	0.00	29.969 
01:10	17.0	17.0	17.0	81	12.2	2	5	90	0.00	29.969 
01:15	17.0	17.0	17.0	81	12.2	2	5	90	0.00	29.965 
01:20	17.0	17.0	17.0	81	12.2	3	12	90	0.00	29.965 
01:25	16.7	10.4	16.7	81	11.9	4	12	90	0.00	29.965 
01:30	16.4	16.4	16.4	80	11.3	3	9	68	0.00	29.967 
01:35	16.1	16.1	16.1	81	11.3	2	9	68	0.00	29.967 
01:40	15.9	15.9	15.9	81	11.1	2	7	112	0.00	29.967 
01:45	15.2	15.2	15.2	80	10.2	3	8	68	0.00	29.977 
01:50	14.9	14.9	14.9	80	9.9	2	6	90	0.00	29.977 
01:55	14.6	14.6	14.6	81	9.9	2	6	68	0.00	29.977 
02:00	14.4	14.4	14.4	81	9.7	1	5	90	0.00	29.990 
02:05	14.1	14.1	14.1	81	9.4	2	8	68	0.00	29.990 
02:10	13.8	13.8	13.8	81	9.1	2	7	68	0.00	29.990 
02:15	13.6	13.6	13.6	81	8.9	1	7	68	0.00	29.994 
02:20	13.5	13.5	13.5	81	8.8	3	7	45	0.00	29.994 
02:25	13.3	13.3	13.3	81	8.6	2	10	68	0.00	29.994 
02:30	13.1	13.1	13.1	81	8.4	2	10	112	0.00	29.997 
02:35	13.1	13.1	13.1	81	8.4	2	6	112	0.00	29.997 
02:40	12.8	12.8	12.8	81	8.1	3	7	112	0.00	29.997 
02:45	12.8	12.8	12.8	81	8.1	1	4	90	0.00	30.006 
02:50	12.6	12.6	12.6	81	7.9	1	5	112	0.00	30.006 
02:55	12.4	12.4	12.4	81	7.7	2	9	68	0.00	30.006 
03:00	12.3	12.3	12.3	81	7.6	3	11	68	0.00	30.010 
03:05	12.3	12.3	12.3	81	7.6	2	9	112	0.00	30.010 
03:10	12.1	12.1	12.1	81	7.4	2	11	112	0.00	30.010 
03:15	12.1	12.1	12.1	81	7.4	2	8	90	0.00	30.013 
03:20	11.9	11.9	11.9	81	7.2	2	6	0	0.00	30.013 
03:25	11.7	11.7	11.7	80	6.7	1	5	22	0.00	30.013 
03:30	11.7	11.7	11.7	80	6.7	2	6	90	0.00	30.021 
03:35	11.6	11.6	11.6	79	6.4	2	10	0	0.00	30.021 
03:40	11.4	11.4	11.4	79	6.2	3	14	68	0.00	30.021 
03:45	11.1	11.1	11.1	78	5.6	2	7	0	0.00	30.029 
03:50	10.7	10.7	10.7	77	4.9	2	6	338	0.00	30.029 
03:55	10.5	10.5	10.5	77	4.7	2	10	338	0.00	30.029 
04:00	10.4	10.4	10.4	77	4.6	2	12	45	0.00	30.041 
04:05	10.2	10.2	10.2	74	3.6	3	10	22	0.00	30.041 
04:10	10.0	10.0	10.0	74	3.4	2	10	68	0.00	30.041 
04:15	9.9	9.9	9.9	73	3.0	3	11	90	0.00	30.049 
04:20	9.9	9.9	9.9	73	3.0	2	17	112	0.00	30.049 
04:25	9.7	9.7	9.7	72	2.5	3	8	112	0.00	30.049 
04:30	9.5	9.5	9.5	73	2.6	1	5	0	0.00	30.058 
04:35	9.3	9.3	9.3	74	2.7	2	6	338	0.00	30.058 
04:40	9.0	9.0	9.0	73	2.1	2	14	338	0.00	30.058 
04:45	8.8	8.8	8.8	73	1.9	3	10	135	0.00	30.061 
04:50	8.6	8.6	8.6	73	1.8	2	7	112	0.00	30.061 
04:55	8.4	8.4	8.4	74	1.8	2	6	112	0.00	30.061 
05:00	8.3	8.3	8.3	74	1.8	2	6	90	0.00	30.075 
05:05	8.1	8.1	8.1	74	1.6	1	3	338	0.00	30.075 
05:10	7.9	7.9	7.9	74	1.4	1	10	338	0.00	30.075 
05:15	7.9	7.9	7.9	74	1.4	2	6	0	0.00	30.079 
05:20	7.7	7.7	7.7	74	1.2	2	6	112	0.00	30.079 
05:25	7.6	7.6	7.6	74	1.1	1	4	68	0.00	30.079 
05:30	7.6	7.6	7.6	74	1.1	1	4	68	0.00	30.083 
05:35	7.6	7.6	7.6	75	1.4	1	5	315	0.00	30.083 
05:40	7.6	7.6	7.6	74	1.1	2	10	45	0.00	30.083 
05:45	7.4	7.4	7.4	75	1.2	1	4	338	0.00	30.093 
05:50	7.2	7.2	7.2	75	1.0	2	5	0	0.00	30.093 
05:55	7.2	7.2	7.2	75	1.0	0	4	0	0.00	30.093 
06:00	7.2	7.2	7.2	76	1.3	0	1	0	0.00	30.098 
06:05	7.0	7.0	7.0	76	1.1	1	5	338	0.00	30.098 
06:10	7.0	7.0	7.0	76	1.1	2	9	338	0.00	30.098 
06:15	6.9	6.9	6.9	74	0.4	2	10	0	0.00	30.106 
06:20	6.9	6.9	6.9	74	0.4	1	5	112	0.00	30.106 
06:25	6.7	6.7	6.7	74	0.2	1	4	315	0.00	30.106 
06:30	6.7	6.7	6.7	74	0.2	0	2	315	0.00	30.112 
06:35	6.5	6.5	6.5	75	0.3	1	4	338	0.00	30.112 
06:40	6.5	6.5	6.5	75	0.3	1	4	315	0.00	30.112 
06:45	6.5	6.5	6.5	75	0.3	0	3	315	0.00	30.116 
06:50	6.5	6.5	6.5	75	0.3	0	3	315	0.00	30.116 
06:55	6.5	6.5	6.5	74	0.0	1	4	338	0.00	30.116 
07:00	6.5	6.5	6.5	72	-0.6	1	4	0	0.00	30.125 
07:05	6.3	6.3	6.3	69	-1.7	1	4	338	0.00	30.125 
07:10	6.3	6.3	6.3	66	-2.6	0	2	0	0.00	30.125 
07:15	6.1	6.1	6.1	64	-3.4	1	4	315	0.00	30.130 
07:20	6.1	6.1	6.1	62	-4.1	1	4	338	0.00	30.130 
07:25	6.0	6.0	6.0	61	-4.5	1	5	338	0.00	30.130 
07:30	6.0	6.0	6.0	60	-4.9	1	6	45	0.00	30.144 
07:35	6.0	6.0	6.0	59	-5.2	1	4	338	0.00	30.144 
07:40	6.0	6.0	6.0	58	-5.6	1	4	338	0.00	30.144 
07:45	5.8	5.8	5.8	58	-5.8	1	4	338	0.00	30.148 
07:50	5.8	5.8	5.8	58	-5.8	1	4	338	0.00	30.148 
07:55	5.6	5.6	5.6	57	-6.3	1	3	338	0.00	30.148 
08:00	5.6	5.6	5.6	56	-6.7	1	4	338	0.00	30.151 
08:05	5.4	5.4	5.4	56	-6.8	1	5	292	0.00	30.151 
08:10	5.4	5.4	5.4	56	-6.8	1	4	292	0.00	30.151 
08:15	5.4	5.4	5.4	55	-7.2	1	5	292	0.00	30.162 
08:20	5.2	5.2	5.2	55	-7.4	1	5	338	0.00	30.162 
08:25	5.0	5.0	5.0	55	-7.6	1	4	338	0.00	30.162 
08:30	5.0	5.0	5.0	55	-7.6	1	4	338	0.00	30.167 
08:35	5.2	5.2	5.2	54	-7.8	2	5	315	0.00	30.167 
08:40	5.2	5.2	5.2	54	-7.8	1	5	315	0.00	30.167 
08:45	5.4	5.4	5.4	54	-7.6	1	6	338	0.00	30.167 
08:50	5.4	5.4	5.4	53	-8.0	2	12	0	0.00	30.167 
08:55	5.6	5.6	5.6	53	-7.8	2	6	338	0.00	30.167 
09:00	5.6	5.6	5.6	53	-7.8	2	7	338	0.00	30.172 
09:05	5.6	5.6	5.6	53	-7.8	1	3	338	0.00	30.172 
09:10	5.6	5.6	5.6	53	-7.8	1	5	338	0.00	30.172 
09:15	5.6	5.6	5.6	53	-7.8	2	9	338	0.00	30.181 
09:20	5.8	5.8	5.8	52	-8.0	1	5	338	0.00	30.181 
09:25	5.8	5.8	5.8	53	-7.6	1	5	315	0.00	30.181 
09:30	5.8	5.8	5.8	52	-8.0	1	5	338	0.00	30.184 
09:35	6.0	6.0	6.0	52	-7.8	1	5	338	0.00	30.184 
09:40	6.1	6.1	6.1	52	-7.7	1	5	0	0.00	30.184 
09:45	6.3	6.3	6.3	51	-7.9	1	3	292	0.00	30.190 
09:50	6.5	6.5	6.5	51	-7.7	1	5	292	0.00	30.190 
09:55	6.5	6.5	6.5	50	-8.1	1	4	338	0.00	30.190 
10:00	6.7	6.7	6.7	50	-7.9	1	5	338	0.00	30.196 
10:05	6.7	6.7	6.7	50	-7.9	2	5	338	0.00	30.196 
10:10	6.7	6.7	6.7	50	-7.9	2	6	338	0.00	30.196 
10:15	6.9	6.9	6.9	49	-8.2	2	5	338	0.00	30.200 
10:20	6.9	6.9	6.9	49	-8.2	1	6	0	0.00	30.200 
10:25	7.0	7.0	7.0	48	-8.5	2	5	338	0.00	30.200 
10:30	7.0	7.0	7.0	48	-8.5	2	7	0	0.00	30.204 
10:35	7.0	7.0	7.0	47	-8.9	3	6	338	0.00	30.204 
10:40	7.0	7.0	7.0	47	-8.9	2	6	338	0.00	30.204 
10:45	7.2	7.2	7.2	47	-8.7	2	5	338	0.00	30.205 
10:50	7.4	7.4	7.4	47	-8.6	2	9	338	0.00	30.205 
10:55	7.4	7.4	7.4	46	-9.0	3	12	338	0.00	30.205 
11:00	7.4	7.4	7.4	46	-9.0	2	7	338	0.00	30.212 
11:05	7.7	7.7	7.7	46	-8.7	2	7	338	0.00	30.212 
11:10	7.7	7.7	7.7	46	-8.7	2	9	338	0.00	30.212 
11:15	7.7	7.7	7.7	46	-8.7	2	7	0	0.00	30.215 
11:20	7.9	7.9	7.9	46	-8.5	1	5	338	0.00	30.215 
11:25	8.1	8.1	8.1	46	-8.3	2	9	338	0.00	30.215 
11:30	8.3	8.3	8.3	45	-8.6	2	7	338	0.00	30.215 
11:35	8.3	8.3	8.3	45	-8.6	3	7	338	0.00	30.215 
11:40	8.6	8.6	8.6	46	-7.9	1	5	338	0.00	30.215 
11:45	8.8	8.8	8.8	45	-8.2	2	6	0	0.00	30.215 
11:50	8.8	8.8	8.8	44	-8.6	2	7	338	0.00	30.215 
11:55	8.6	1.0	8.6	43	-9.3	4	11	338	0.00	30.215 
12:00	8.6	8.6	8.6	44	-8.8	3	11	315	0.00	30.210 
12:05	8.8	8.8	8.8	45	-8.2	2	7	338	0.00	30.210 
12:10	9.2	9.2	9.2	45	-7.8	1	4	315	0.00	30.210 
12:15	9.2	9.2	9.2	44	-8.2	3	7	338	0.00	30.207 
12:20	9.2	9.2	9.2	44	-8.2	3	7	315	0.00	30.207 
12:25	9.0	9.0	9.0	44	-8.4	3	9	0	0.00	30.207 
12:30	9.2	9.2	9.2	45	-7.8	2	5	0	0.00	30.203 
12:35	9.3	9.3	9.3	44	-8.2	2	10	338	0.00	30.203 
12:40	9.3	9.3	9.3	43	-8.6	3	10	338	0.00	30.203 
12:45	9.3	9.3	9.3	44	-8.2	2	7	0	0.00	30.203 
12:50	9.7	9.7	9.7	43	-8.3	3	9	338	0.00	30.203 
12:55	9.7	9.7	9.7	43	-8.3	2	9	0	0.00	30.203 
13:00	9.7	9.7	9.7	42	-8.7	3	7	338	0.00	30.198 
13:05	9.7	9.7	9.7	42	-8.7	2	5	338	0.00	30.198 
13:10	9.7	9.7	9.7	42	-8.7	2	7	338	0.00	30.198 
13:15	9.7	9.7	9.7	42	-8.7	3	7	315	0.00	30.194 
13:20	9.9	9.9	9.9	42	-8.5	2	9	338	0.00	30.194 
13:25	10.0	10.0	10.0	43	-8.0	2	7	338	0.00	30.194 
13:30	10.0	10.0	10.0	42	-8.5	2	7	338	0.00	30.192 
13:35	10.2	10.2	10.2	41	-8.8	2	9	338	0.00	30.192 
13:40	10.2	10.2	10.2	41	-8.8	2	6	338	0.00	30.192 
13:45	10.2	10.2	10.2	42	-8.3	2	9	315	0.00	30.189 
13:50	10.2	10.2	10.2	43	-7.8	1	4	68	0.00	30.189 
13:55	10.4	10.4	10.4	43	-7.6	1	4	45	0.00	30.189 
14:00	10.4	10.4	10.4	42	-8.1	2	7	315	0.00	30.186 
14:05	10.5	10.5	10.5	42	-8.0	2	6	0	0.00	30.186 
14:10	10.5	10.5	10.5	41	-8.5	2	6	338	0.00	30.186 
14:15	10.7	10.7	10.7	41	-8.3	2	7	338	0.00	30.197 
14:20	10.5	10.5	10.5	39	-9.5	3	12	0	0.00	30.197 
14:25	10.5	10.5	10.5	40	-9.0	1	5	338	0.00	30.197 
14:30	10.5	10.5	10.5	40	-9.0	1	4	315	0.00	30.191 
14:35	10.7	10.7	10.7	40	-8.8	1	4	338	0.00	30.191 
14:40	10.9	10.9	10.9	40	-8.6	2	5	338	0.00	30.191 
14:45	10.7	10.7	10.7	40	-8.8	2	6	315	0.00	30.191 
14:50	10.7	10.7	10.7	40	-8.8	1	5	0	0.00	30.191 
14:55	10.9	10.9	10.9	40	-8.6	2	5	292	0.00	30.191 
15:00	11.1	11.1	11.1	40	-8.4	1	9	338	0.00	30.193 
15:05	11.2	11.2	11.2	41	-7.9	1	4	135	0.00	30.193 
15:10	11.2	11.2	11.2	40	-8.4	1	5	315	0.00	30.193 
15:15	10.9	10.9	10.9	39	-9.1	2	6	315	0.00	30.203 
15:20	10.9	10.9	10.9	39	-9.1	1	5	338	0.00	30.203 
15:25	10.9	10.9	10.9	39	-9.1	1	10	292	0.00	30.203 
15:30	11.1	11.1	11.1	39	-9.0	2	7	315	0.00	30.200 
15:35	11.1	11.1	11.1	38	-9.5	2	7	338	0.00	30.200 
15:40	11.1	11.1	11.1	39	-9.0	1	3	338	0.00	30.200 
15:45	11.2	11.2	11.2	39	-8.9	1	3	45	0.00	30.203 
15:50	11.1	11.1	11.1	38	-9.5	2	5	338	0.00	30.203 
15:55	11.1	11.1	11.1	39	-9.0	1	3	338	0.00	30.203 
16:00	11.1	11.1	11.1	38	-9.5	1	3	315	0.00	30.210 
16:05	10.9	10.9	10.9	36	-10.8	1	4	338	0.00	30.210 
16:10	10.5	10.5	10.5	36	-11.1	1	5	338	0.00	30.210 
16:15	10.4	10.4	10.4	36	-11.2	1	4	0	0.00	30.221 
16:20	10.2	10.2	10.2	35	-11.9	2	5	338	0.00	30.221 
16:25	10.0	10.0	10.0	36	-11.6	1	5	338	0.00	30.221 
16:30	9.9	9.9	9.9	36	-11.7	1	5	315	0.00	30.226 
16:35	10.0	10.0	10.0	37	-11.0	1	5	292	0.00	30.226 
16:40	9.9	9.9	9.9	36	-11.7	1	3	338	0.00	30.226 
16:45	9.9	9.9	9.9	36	-11.7	2	5	315	0.00	30.228 
16:50	9.7	9.7	9.7	36	-11.8	1	4	338	0.00	30.228 
16:55	9.5	9.5	9.5	36	-12.0	1	5	0	0.00	30.228 
17:00	9.3	9.3	9.3	36	-12.2	1	5	315	0.00	30.234 
17:05	9.3	9.3	9.3	37	-11.6	1	4	315	0.00	30.234 
17:10	9.2	9.2	9.2	37	-11.7	1	4	338	0.00	30.234 
17:15	9.0	9.0	9.0	37	-11.9	0	2	338	0.00	30.240 
17:20	8.8	8.8	8.8	38	-11.6	0	2	338	0.00	30.240 
17:25	8.6	8.6	8.6	39	-11.2	0	2	338	0.00	30.240 
17:30	8.4	8.4	8.4	39	-11.4	0	2	338	0.00	30.248 
17:35	8.3	8.3	8.3	39	-11.5	0	1	338	0.00	30.248 
17:40	7.9	7.9	7.9	39	-11.9	0	0	---	0.00	30.248 
17:45	7.7	7.7	7.7	40	-11.5	0	1	338	0.00	30.252 
17:50	7.6	7.6	7.6	40	-11.6	0	0	---	0.00	30.252 
17:55	7.2	7.2	7.2	41	-11.5	0	0	---	0.00	30.252 
18:00	6.9	6.9	6.9	41	-11.8	0	0	---	0.00	30.257 
18:05	6.7	6.7	6.7	42	-11.5	0	0	---	0.00	30.257 
18:10	6.7	6.7	6.7	42	-11.5	0	0	---	0.00	30.257 
18:15	6.3	6.3	6.3	42	-11.8	0	0	---	0.00	30.258 
18:20	6.0	6.0	6.0	43	-11.6	0	0	---	0.00	30.258 
18:25	5.6	5.6	5.6	43	-12.0	0	0	---	0.00	30.258 
18:30	5.2	5.2	5.2	43	-12.4	0	0	---	0.00	30.261 
18:35	5.0	5.0	5.0	44	-12.1	0	0	---	0.00	30.261 
18:40	4.7	4.7	4.7	45	-11.9	0	0	---	0.00	30.261 
18:45	4.3	4.3	4.3	45	-12.3	0	0	---	0.00	30.262 
18:50	4.1	4.1	4.1	46	-12.0	0	0	---	0.00	30.262 
18:55	3.7	3.7	3.7	47	-12.0	0	0	---	0.00	30.262 
19:00	3.4	3.4	3.4	48	-11.8	0	0	---	0.00	30.265 
19:05	3.0	3.0	3.0	49	-11.8	0	0	---	0.00	30.265 
19:10	2.8	2.8	2.8	50	-11.6	0	0	---	0.00	30.265 
19:15	2.4	2.4	2.4	52	-11.2	0	0	---	0.00	30.263 
19:20	2.2	2.2	2.2	54	-10.6	0	0	---	0.00	30.263 
19:25	1.8	1.8	1.8	56	-10.2	0	0	---	0.00	30.263 
19:30	1.5	1.5	1.5	56	-10.5	0	0	---	0.00	30.261 
19:35	1.3	1.3	1.3	57	-10.3	0	0	---	0.00	30.261 
19:40	1.1	1.1	1.1	58	-10.2	0	0	---	0.00	30.261 
19:45	0.9	0.9	0.9	59	-10.0	0	0	---	0.00	30.265 
19:50	0.9	0.9	0.9	60	-9.7	0	0	---	0.00	30.265 
19:55	0.7	0.7	0.7	61	-9.5	0	0	---	0.00	30.265 
20:00	0.5	0.5	0.5	62	-9.4	0	0	---	0.00	30.260 
20:05	0.1	0.1	0.1	62	-9.8	0	0	---	0.00	30.260 
20:10	-0.2	-0.2	-0.2	62	-10.1	0	0	---	0.00	30.260 
20:15	-0.4	-0.4	-0.4	64	-9.6	0	0	---	0.00	30.257 
20:20	-0.6	-0.6	-0.6	65	-9.5	0	0	---	0.00	30.257 
20:25	-1.0	-1.0	-1.0	65	-9.9	0	0	---	0.00	30.257 
20:30	-1.2	-1.2	-1.2	65	-10.1	0	0	---	0.00	30.261 
20:35	-1.2	-1.2	-1.2	66	-9.8	0	0	---	0.00	30.261 
20:40	-1.2	-1.2	-1.2	67	-9.5	0	0	---	0.00	30.261 
20:45	-1.0	-1.0	-1.0	67	-9.3	0	0	---	0.00	30.260 
20:50	-0.6	-0.6	-0.6	68	-8.6	0	0	---	0.00	30.260 
20:55	-0.6	-0.6	-0.6	68	-8.6	0	0	---	0.00	30.260 
21:00	-0.4	-0.4	-0.4	69	-8.1	0	0	---	0.00	30.254 
21:05	-0.4	-0.4	-0.4	69	-8.1	0	0	---	0.00	30.254 
21:10	-0.2	-0.2	-0.2	69	-7.9	0	0	---	0.00	30.254 
21:15	-0.2	-0.2	-0.2	69	-7.9	0	0	---	0.00	30.255 
21:20	0.0	0.0	0.0	69	-7.7	0	0	---	0.00	30.255 
21:25	0.0	0.0	0.0	69	-7.7	0	0	---	0.00	30.255 
21:30	0.0	0.0	0.0	69	-7.7	0	0	---	0.00	30.256 
21:35	0.0	0.0	0.0	69	-7.7	0	0	---	0.00	30.256 
21:40	-0.2	-0.2	-0.2	69	-7.9	0	0	---	0.00	30.256 
21:45	-0.2	-0.2	-0.2	69	-7.9	0	0	---	0.00	30.255 
21:50	-0.4	-0.4	-0.4	68	-8.4	0	0	---	0.00	30.255 
21:55	-0.4	-0.4	-0.4	68	-8.4	0	0	---	0.00	30.255 
22:00	-0.6	-0.6	-0.6	68	-8.6	0	0	---	0.00	30.258 
22:05	-0.6	-0.6	-0.6	69	-8.3	0	0	---	0.00	30.258 
22:10	-0.4	-0.4	-0.4	69	-8.1	0	0	---	0.00	30.258 
22:15	-0.2	-0.2	-0.2	69	-7.9	0	0	---	0.00	30.256 
22:20	0.0	0.0	0.0	69	-7.7	0	0	---	0.00	30.256 
22:25	0.0	0.0	0.0	69	-7.7	0	0	---	0.00	30.256 
22:30	0.0	0.0	0.0	69	-7.7	0	0	---	0.00	30.249 
22:35	-0.2	-0.2	-0.2	68	-8.2	0	0	---	0.00	30.249 
22:40	-0.2	-0.2	-0.2	68	-8.2	0	0	---	0.00	30.249 
22:45	-0.4	-0.4	-0.4	68	-8.4	0	0	---	0.00	30.245 
22:50	-0.4	-0.4	-0.4	68	-8.4	0	0	---	0.00	30.245 
22:55	-0.4	-0.4	-0.4	69	-8.1	0	0	---	0.00	30.245 
23:00	-0.2	-0.2	-0.2	69	-7.9	0	0	---	0.00	30.246 
23:05	-0.2	-0.2	-0.2	70	-7.6	0	0	---	0.00	30.246 
23:10	0.1	0.1	0.1	70	-7.3	0	0	---	0.00	30.246 
23:15	0.3	0.3	0.3	71	-6.8	0	0	---	0.00	30.252 
23:20	0.5	0.5	0.5	70	-6.9	0	0	---	0.00	30.252 
23:25	0.7	0.7	0.7	71	-6.5	0	0	---	0.00	30.252 
23:30	0.9	0.9	0.9	71	-6.3	0	0	---	0.00	30.250 
23:35	1.1	1.1	1.1	71	-6.1	0	0	---	0.00	30.250 
23:40	1.3	1.3	1.3	71	-5.9	0	0	---	0.00	30.250 
23:45	1.5	1.5	1.5	71	-5.7	0	0	---	0.00	30.248 
23:50	1.7	1.7	1.7	71	-5.5	0	0	---	0.00	30.248 
23:55	1.7	1.7	1.7	71	-5.5	0	0	---	0.00	30.248 

CoCoRaHS
IN-AL-39
A2 Web Hosting
Creative Commons License
GoDaddy
search engine by freefind advanced

loaded 2018-11-15 17:48:10 • last modified 2010-11-18 10:43:29
Privacy PolicyDisclaimer
• wx.awcolley.com is powered by PmWiki v.2002016 •
• all content (unless otherwise noted) © 2018 A W Colley